sensor_id;sensor_type;location;lat;lon;timestamp;P1;durP1;ratioP1;P2;durP2;ratioP2
21239;SDS011;10778;48.962;9.018;2022-11-20T00:00:37;22.50;;;12.73;;
21239;SDS011;10778;48.962;9.018;2022-11-20T00:03:03;25.45;;;13.88;;
21239;SDS011;10778;48.962;9.018;2022-11-20T00:05:31;25.45;;;13.57;;
21239;SDS011;10778;48.962;9.018;2022-11-20T00:07:58;20.58;;;12.27;;
21239;SDS011;10778;48.962;9.018;2022-11-20T00:10:24;21.40;;;12.93;;
21239;SDS011;10778;48.962;9.018;2022-11-20T00:12:50;23.30;;;14.25;;
21239;SDS011;10778;48.962;9.018;2022-11-20T00:15:16;23.08;;;13.93;;
21239;SDS011;10778;48.962;9.018;2022-11-20T00:17:42;20.10;;;12.80;;
21239;SDS011;10778;48.962;9.018;2022-11-20T00:20:08;21.15;;;13.43;;
21239;SDS011;10778;48.962;9.018;2022-11-20T00:22:35;20.02;;;12.68;;
21239;SDS011;10778;48.962;9.018;2022-11-20T00:25:01;20.77;;;12.30;;
21239;SDS011;10778;48.962;9.018;2022-11-20T00:27:27;19.70;;;12.48;;
21239;SDS011;10778;48.962;9.018;2022-11-20T00:29:53;19.55;;;11.95;;
21239;SDS011;10778;48.962;9.018;2022-11-20T00:32:19;19.13;;;11.82;;
21239;SDS011;10778;48.962;9.018;2022-11-20T00:34:45;22.50;;;12.68;;
21239;SDS011;10778;48.962;9.018;2022-11-20T00:37:11;23.35;;;13.00;;
21239;SDS011;10778;48.962;9.018;2022-11-20T00:39:37;20.25;;;12.52;;
21239;SDS011;10778;48.962;9.018;2022-11-20T00:42:03;47.28;;;20.45;;
21239;SDS011;10778;48.962;9.018;2022-11-20T00:44:29;45.58;;;20.02;;
21239;SDS011;10778;48.962;9.018;2022-11-20T00:46:55;44.95;;;19.35;;
21239;SDS011;10778;48.962;9.018;2022-11-20T00:49:21;36.35;;;18.48;;
21239;SDS011;10778;48.962;9.018;2022-11-20T00:51:47;32.00;;;17.40;;
21239;SDS011;10778;48.962;9.018;2022-11-20T00:54:13;32.50;;;16.13;;
21239;SDS011;10778;48.962;9.018;2022-11-20T00:56:40;26.70;;;15.57;;
21239;SDS011;10778;48.962;9.018;2022-11-20T00:59:06;30.02;;;15.95;;
21239;SDS011;10778;48.962;9.018;2022-11-20T01:01:33;29.25;;;16.33;;
21239;SDS011;10778;48.962;9.018;2022-11-20T01:03:59;37.80;;;16.38;;
21239;SDS011;10778;48.962;9.018;2022-11-20T01:06:27;26.30;;;14.80;;
21239;SDS011;10778;48.962;9.018;2022-11-20T01:08:57;25.75;;;15.32;;
21239;SDS011;10778;48.962;9.018;2022-11-20T01:11:26;28.27;;;16.17;;
21239;SDS011;10778;48.962;9.018;2022-11-20T01:13:54;25.27;;;15.45;;
21239;SDS011;10778;48.962;9.018;2022-11-20T01:16:23;26.60;;;16.33;;
21239;SDS011;10778;48.962;9.018;2022-11-20T01:18:55;24.98;;;14.68;;
21239;SDS011;10778;48.962;9.018;2022-11-20T01:21:24;22.75;;;14.55;;
21239;SDS011;10778;48.962;9.018;2022-11-20T01:23:54;25.85;;;14.77;;
21239;SDS011;10778;48.962;9.018;2022-11-20T01:26:22;24.77;;;15.18;;
21239;SDS011;10778;48.962;9.018;2022-11-20T01:28:51;23.65;;;13.93;;
21239;SDS011;10778;48.962;9.018;2022-11-20T01:31:18;23.58;;;14.10;;
21239;SDS011;10778;48.962;9.018;2022-11-20T01:33:47;23.50;;;14.27;;
21239;SDS011;10778;48.962;9.018;2022-11-20T01:36:16;25.67;;;14.57;;
21239;SDS011;10778;48.962;9.018;2022-11-20T01:38:43;22.92;;;13.35;;
21239;SDS011;10778;48.962;9.018;2022-11-20T01:41:10;24.25;;;14.23;;
21239;SDS011;10778;48.962;9.018;2022-11-20T01:43:57;21.27;;;13.23;;
21239;SDS011;10778;48.962;9.018;2022-11-20T01:46:23;22.65;;;13.68;;
21239;SDS011;10778;48.962;9.018;2022-11-20T01:54:19;20.08;;;13.13;;
21239;SDS011;10778;48.962;9.018;2022-11-20T01:56:52;23.30;;;13.48;;
21239;SDS011;10778;48.962;9.018;2022-11-20T01:59:22;21.25;;;14.27;;
21239;SDS011;10778;48.962;9.018;2022-11-20T02:01:51;22.25;;;14.32;;
21239;SDS011;10778;48.962;9.018;2022-11-20T02:04:17;22.75;;;14.27;;
21239;SDS011;10778;48.962;9.018;2022-11-20T02:06:46;19.70;;;13.90;;
21239;SDS011;10778;48.962;9.018;2022-11-20T02:09:15;17.90;;;11.80;;
21239;SDS011;10778;48.962;9.018;2022-11-20T02:11:42;21.10;;;13.05;;
21239;SDS011;10778;48.962;9.018;2022-11-20T02:14:08;19.13;;;12.93;;
21239;SDS011;10778;48.962;9.018;2022-11-20T02:16:36;17.70;;;12.10;;
21239;SDS011;10778;48.962;9.018;2022-11-20T02:19:06;18.27;;;12.27;;
21239;SDS011;10778;48.962;9.018;2022-11-20T02:21:43;19.08;;;12.90;;
21239;SDS011;10778;48.962;9.018;2022-11-20T02:24:17;17.63;;;12.05;;
21239;SDS011;10778;48.962;9.018;2022-11-20T02:26:46;18.23;;;12.63;;
21239;SDS011;10778;48.962;9.018;2022-11-20T02:29:19;17.58;;;12.25;;
21239;SDS011;10778;48.962;9.018;2022-11-20T02:32:17;18.08;;;12.13;;
21239;SDS011;10778;48.962;9.018;2022-11-20T02:34:47;19.05;;;12.70;;
21239;SDS011;10778;48.962;9.018;2022-11-20T02:37:13;17.30;;;11.68;;
21239;SDS011;10778;48.962;9.018;2022-11-20T02:39:40;16.00;;;11.15;;
21239;SDS011;10778;48.962;9.018;2022-11-20T02:42:07;16.67;;;11.30;;
21239;SDS011;10778;48.962;9.018;2022-11-20T02:44:33;15.48;;;11.13;;
21239;SDS011;10778;48.962;9.018;2022-11-20T02:46:59;16.35;;;11.35;;
21239;SDS011;10778;48.962;9.018;2022-11-20T02:49:25;15.90;;;11.40;;
21239;SDS011;10778;48.962;9.018;2022-11-20T02:51:51;17.33;;;11.13;;
21239;SDS011;10778;48.962;9.018;2022-11-20T02:54:17;15.88;;;10.90;;
21239;SDS011;10778;48.962;9.018;2022-11-20T02:56:43;13.30;;;9.77;;
21239;SDS011;10778;48.962;9.018;2022-11-20T02:59:09;13.15;;;9.93;;
21239;SDS011;10778;48.962;9.018;2022-11-20T03:01:35;15.10;;;10.48;;
21239;SDS011;10778;48.962;9.018;2022-11-20T03:04:02;12.73;;;10.07;;
21239;SDS011;10778;48.962;9.018;2022-11-20T03:06:28;17.02;;;11.52;;
21239;SDS011;10778;48.962;9.018;2022-11-20T03:08:54;16.70;;;11.57;;
21239;SDS011;10778;48.962;9.018;2022-11-20T03:11:20;15.95;;;11.18;;
21239;SDS011;10778;48.962;9.018;2022-11-20T03:13:46;18.23;;;11.77;;
21239;SDS011;10778;48.962;9.018;2022-11-20T03:16:13;17.05;;;11.25;;
21239;SDS011;10778;48.962;9.018;2022-11-20T03:18:41;18.60;;;12.32;;
21239;SDS011;10778;48.962;9.018;2022-11-20T03:21:08;17.30;;;11.32;;
21239;SDS011;10778;48.962;9.018;2022-11-20T03:23:36;17.45;;;11.27;;
21239;SDS011;10778;48.962;9.018;2022-11-20T03:26:08;17.60;;;11.50;;
21239;SDS011;10778;48.962;9.018;2022-11-20T03:28:40;15.95;;;11.23;;
21239;SDS011;10778;48.962;9.018;2022-11-20T03:31:11;15.32;;;10.77;;
21239;SDS011;10778;48.962;9.018;2022-11-20T03:33:40;14.52;;;10.10;;
21239;SDS011;10778;48.962;9.018;2022-11-20T03:36:11;14.68;;;10.57;;
21239;SDS011;10778;48.962;9.018;2022-11-20T03:38:39;16.80;;;10.55;;
21239;SDS011;10778;48.962;9.018;2022-11-20T03:41:07;15.13;;;10.48;;
21239;SDS011;10778;48.962;9.018;2022-11-20T03:43:40;14.48;;;10.32;;
21239;SDS011;10778;48.962;9.018;2022-11-20T03:46:06;12.43;;;9.50;;
21239;SDS011;10778;48.962;9.018;2022-11-20T03:48:33;10.75;;;8.75;;
21239;SDS011;10778;48.962;9.018;2022-11-20T03:51:12;12.50;;;8.55;;
21239;SDS011;10778;48.962;9.018;2022-11-20T03:53:40;11.60;;;8.15;;
21239;SDS011;10778;48.962;9.018;2022-11-20T03:56:07;13.60;;;8.95;;
21239;SDS011;10778;48.962;9.018;2022-11-20T03:58:34;12.40;;;9.27;;
21239;SDS011;10778;48.962;9.018;2022-11-20T04:01:12;12.70;;;9.63;;
21239;SDS011;10778;48.962;9.018;2022-11-20T04:03:41;13.77;;;9.88;;
21239;SDS011;10778;48.962;9.018;2022-11-20T04:06:09;12.43;;;9.40;;
21239;SDS011;10778;48.962;9.018;2022-11-20T04:08:38;12.25;;;9.13;;
21239;SDS011;10778;48.962;9.018;2022-11-20T04:11:14;12.13;;;8.45;;
21239;SDS011;10778;48.962;9.018;2022-11-20T04:13:48;11.40;;;8.18;;
21239;SDS011;10778;48.962;9.018;2022-11-20T04:16:16;11.57;;;8.48;;
21239;SDS011;10778;48.962;9.018;2022-11-20T04:18:43;13.65;;;8.93;;
21239;SDS011;10778;48.962;9.018;2022-11-20T04:21:10;11.88;;;8.75;;
21239;SDS011;10778;48.962;9.018;2022-11-20T04:23:36;12.77;;;9.15;;
21239;SDS011;10778;48.962;9.018;2022-11-20T04:26:07;14.18;;;9.27;;
21239;SDS011;10778;48.962;9.018;2022-11-20T04:28:35;13.50;;;9.15;;
21239;SDS011;10778;48.962;9.018;2022-11-20T04:31:08;11.57;;;8.68;;
21239;SDS011;10778;48.962;9.018;2022-11-20T04:33:36;10.90;;;7.43;;
21239;SDS011;10778;48.962;9.018;2022-11-20T04:36:03;11.27;;;7.38;;
21239;SDS011;10778;48.962;9.018;2022-11-20T04:38:33;9.27;;;7.22;;
21239;SDS011;10778;48.962;9.018;2022-11-20T04:41:00;9.52;;;6.30;;
21239;SDS011;10778;48.962;9.018;2022-11-20T04:43:27;8.82;;;6.13;;
21239;SDS011;10778;48.962;9.018;2022-11-20T04:45:53;6.90;;;5.10;;
21239;SDS011;10778;48.962;9.018;2022-11-20T04:48:20;7.35;;;5.10;;
21239;SDS011;10778;48.962;9.018;2022-11-20T04:50:46;6.35;;;4.70;;
21239;SDS011;10778;48.962;9.018;2022-11-20T04:53:13;8.23;;;4.75;;
21239;SDS011;10778;48.962;9.018;2022-11-20T04:55:40;6.35;;;4.40;;
21239;SDS011;10778;48.962;9.018;2022-11-20T04:58:06;7.75;;;4.50;;
21239;SDS011;10778;48.962;9.018;2022-11-20T05:00:32;6.97;;;4.30;;
21239;SDS011;10778;48.962;9.018;2022-11-20T05:02:58;6.22;;;4.50;;
21239;SDS011;10778;48.962;9.018;2022-11-20T05:05:25;6.82;;;4.70;;
21239;SDS011;10778;48.962;9.018;2022-11-20T05:07:51;7.28;;;4.40;;
21239;SDS011;10778;48.962;9.018;2022-11-20T05:10:17;6.45;;;4.43;;
21239;SDS011;10778;48.962;9.018;2022-11-20T05:12:43;7.05;;;4.60;;
21239;SDS011;10778;48.962;9.018;2022-11-20T05:15:09;6.70;;;4.05;;
21239;SDS011;10778;48.962;9.018;2022-11-20T05:17:35;5.68;;;4.55;;
21239;SDS011;10778;48.962;9.018;2022-11-20T05:20:01;6.20;;;3.95;;
21239;SDS011;10778;48.962;9.018;2022-11-20T05:22:27;7.45;;;4.03;;
21239;SDS011;10778;48.962;9.018;2022-11-20T05:24:53;5.22;;;3.88;;
21239;SDS011;10778;48.962;9.018;2022-11-20T05:27:19;6.57;;;4.18;;
21239;SDS011;10778;48.962;9.018;2022-11-20T05:29:45;6.05;;;4.25;;
21239;SDS011;10778;48.962;9.018;2022-11-20T05:32:11;6.72;;;4.30;;
21239;SDS011;10778;48.962;9.018;2022-11-20T05:34:37;7.68;;;4.45;;
21239;SDS011;10778;48.962;9.018;2022-11-20T05:37:03;5.85;;;4.13;;
21239;SDS011;10778;48.962;9.018;2022-11-20T05:39:29;4.60;;;4.03;;
21239;SDS011;10778;48.962;9.018;2022-11-20T05:41:55;5.43;;;3.78;;
21239;SDS011;10778;48.962;9.018;2022-11-20T05:44:40;7.00;;;4.45;;
21239;SDS011;10778;48.962;9.018;2022-11-20T05:47:06;6.78;;;4.60;;
21239;SDS011;10778;48.962;9.018;2022-11-20T05:49:32;5.43;;;4.15;;
21239;SDS011;10778;48.962;9.018;2022-11-20T05:51:58;7.50;;;4.20;;
21239;SDS011;10778;48.962;9.018;2022-11-20T05:54:24;7.00;;;3.78;;
21239;SDS011;10778;48.962;9.018;2022-11-20T05:56:50;5.70;;;4.10;;
21239;SDS011;10778;48.962;9.018;2022-11-20T05:59:16;5.07;;;3.58;;
21239;SDS011;10778;48.962;9.018;2022-11-20T06:01:42;4.13;;;3.50;;
21239;SDS011;10778;48.962;9.018;2022-11-20T06:04:08;6.22;;;3.70;;
21239;SDS011;10778;48.962;9.018;2022-11-20T06:06:34;6.45;;;4.00;;
21239;SDS011;10778;48.962;9.018;2022-11-20T06:09:00;5.85;;;4.40;;
21239;SDS011;10778;48.962;9.018;2022-11-20T06:11:26;8.65;;;5.93;;
21239;SDS011;10778;48.962;9.018;2022-11-20T06:13:52;6.88;;;5.30;;
21239;SDS011;10778;48.962;9.018;2022-11-20T06:16:19;5.68;;;4.53;;
21239;SDS011;10778;48.962;9.018;2022-11-20T06:18:46;8.63;;;4.50;;
21239;SDS011;10778;48.962;9.018;2022-11-20T06:21:22;7.70;;;4.55;;
21239;SDS011;10778;48.962;9.018;2022-11-20T06:23:49;4.50;;;3.67;;
21239;SDS011;10778;48.962;9.018;2022-11-20T06:26:20;5.15;;;2.90;;
21239;SDS011;10778;48.962;9.018;2022-11-20T06:28:48;3.85;;;2.92;;
21239;SDS011;10778;48.962;9.018;2022-11-20T06:31:15;3.88;;;2.60;;
21239;SDS011;10778;48.962;9.018;2022-11-20T06:33:43;3.97;;;2.63;;
21239;SDS011;10778;48.962;9.018;2022-11-20T06:36:10;4.32;;;2.55;;
21239;SDS011;10778;48.962;9.018;2022-11-20T06:38:38;6.10;;;2.83;;
21239;SDS011;10778;48.962;9.018;2022-11-20T06:41:26;3.85;;;2.47;;
21239;SDS011;10778;48.962;9.018;2022-11-20T06:43:51;2.88;;;1.98;;
21239;SDS011;10778;48.962;9.018;2022-11-20T06:46:17;2.40;;;1.73;;
21239;SDS011;10778;48.962;9.018;2022-11-20T06:48:45;3.92;;;1.80;;
21239;SDS011;10778;48.962;9.018;2022-11-20T06:51:11;1.80;;;1.52;;
21239;SDS011;10778;48.962;9.018;2022-11-20T06:53:38;2.88;;;1.73;;
21239;SDS011;10778;48.962;9.018;2022-11-20T06:56:04;3.60;;;1.50;;
21239;SDS011;10778;48.962;9.018;2022-11-20T06:58:31;1.80;;;1.38;;
21239;SDS011;10778;48.962;9.018;2022-11-20T07:00:59;2.85;;;1.42;;
21239;SDS011;10778;48.962;9.018;2022-11-20T07:03:26;4.28;;;1.73;;
21239;SDS011;10778;48.962;9.018;2022-11-20T07:05:56;4.10;;;1.63;;
21239;SDS011;10778;48.962;9.018;2022-11-20T07:08:23;2.95;;;1.70;;
21239;SDS011;10778;48.962;9.018;2022-11-20T07:10:50;2.50;;;1.70;;
21239;SDS011;10778;48.962;9.018;2022-11-20T07:13:16;3.42;;;2.25;;
21239;SDS011;10778;48.962;9.018;2022-11-20T07:15:42;4.65;;;2.33;;
21239;SDS011;10778;48.962;9.018;2022-11-20T07:18:08;5.35;;;2.60;;
21239;SDS011;10778;48.962;9.018;2022-11-20T07:20:34;3.95;;;2.47;;
21239;SDS011;10778;48.962;9.018;2022-11-20T07:23:00;4.45;;;2.60;;
21239;SDS011;10778;48.962;9.018;2022-11-20T07:25:27;4.93;;;2.45;;
21239;SDS011;10778;48.962;9.018;2022-11-20T07:27:59;4.53;;;2.30;;
21239;SDS011;10778;48.962;9.018;2022-11-20T07:30:27;3.83;;;2.33;;
21239;SDS011;10778;48.962;9.018;2022-11-20T07:32:54;4.07;;;2.25;;
21239;SDS011;10778;48.962;9.018;2022-11-20T07:35:22;3.35;;;2.60;;
21239;SDS011;10778;48.962;9.018;2022-11-20T07:37:49;5.47;;;2.50;;
21239;SDS011;10778;48.962;9.018;2022-11-20T07:40:15;4.85;;;3.10;;
21239;SDS011;10778;48.962;9.018;2022-11-20T07:42:48;5.22;;;2.90;;
21239;SDS011;10778;48.962;9.018;2022-11-20T07:45:16;4.00;;;2.20;;
21239;SDS011;10778;48.962;9.018;2022-11-20T07:47:42;3.08;;;2.25;;
21239;SDS011;10778;48.962;9.018;2022-11-20T07:50:08;3.28;;;2.40;;
21239;SDS011;10778;48.962;9.018;2022-11-20T07:52:35;4.13;;;2.10;;
21239;SDS011;10778;48.962;9.018;2022-11-20T07:55:01;4.60;;;2.00;;
21239;SDS011;10778;48.962;9.018;2022-11-20T07:57:27;3.42;;;2.20;;
21239;SDS011;10778;48.962;9.018;2022-11-20T07:59:53;3.35;;;1.90;;
21239;SDS011;10778;48.962;9.018;2022-11-20T08:02:19;3.72;;;1.55;;
21239;SDS011;10778;48.962;9.018;2022-11-20T08:04:45;3.10;;;1.70;;
21239;SDS011;10778;48.962;9.018;2022-11-20T08:07:11;1.85;;;1.42;;
21239;SDS011;10778;48.962;9.018;2022-11-20T08:09:37;2.30;;;1.60;;
21239;SDS011;10778;48.962;9.018;2022-11-20T08:12:03;1.88;;;1.40;;
21239;SDS011;10778;48.962;9.018;2022-11-20T08:14:47;4.70;;;2.10;;
21239;SDS011;10778;48.962;9.018;2022-11-20T08:17:13;3.45;;;1.70;;
21239;SDS011;10778;48.962;9.018;2022-11-20T08:19:39;4.07;;;2.50;;
21239;SDS011;10778;48.962;9.018;2022-11-20T08:22:05;4.65;;;2.50;;
21239;SDS011;10778;48.962;9.018;2022-11-20T08:24:31;5.45;;;2.70;;
21239;SDS011;10778;48.962;9.018;2022-11-20T08:26:58;2.47;;;1.58;;
21239;SDS011;10778;48.962;9.018;2022-11-20T08:29:27;2.47;;;1.20;;
21239;SDS011;10778;48.962;9.018;2022-11-20T08:31:53;3.08;;;1.90;;
21239;SDS011;10778;48.962;9.018;2022-11-20T08:34:19;3.28;;;2.05;;
21239;SDS011;10778;48.962;9.018;2022-11-20T08:36:45;3.78;;;2.75;;
21239;SDS011;10778;48.962;9.018;2022-11-20T08:39:11;5.68;;;3.25;;
21239;SDS011;10778;48.962;9.018;2022-11-20T08:41:38;3.33;;;2.75;;
21239;SDS011;10778;48.962;9.018;2022-11-20T08:44:05;5.30;;;3.30;;
21239;SDS011;10778;48.962;9.018;2022-11-20T08:46:33;3.80;;;2.20;;
21239;SDS011;10778;48.962;9.018;2022-11-20T08:49:06;3.92;;;3.00;;
21239;SDS011;10778;48.962;9.018;2022-11-20T08:51:34;3.72;;;2.35;;
21239;SDS011;10778;48.962;9.018;2022-11-20T08:54:00;3.55;;;2.90;;
21239;SDS011;10778;48.962;9.018;2022-11-20T08:56:26;4.35;;;2.60;;
21239;SDS011;10778;48.962;9.018;2022-11-20T08:58:53;3.95;;;2.50;;
21239;SDS011;10778;48.962;9.018;2022-11-20T09:01:19;4.97;;;3.63;;
21239;SDS011;10778;48.962;9.018;2022-11-20T09:03:46;8.50;;;4.60;;
21239;SDS011;10778;48.962;9.018;2022-11-20T09:06:13;4.75;;;3.90;;
21239;SDS011;10778;48.962;9.018;2022-11-20T09:08:39;4.65;;;3.33;;
21239;SDS011;10778;48.962;9.018;2022-11-20T09:11:05;3.95;;;3.33;;
21239;SDS011;10778;48.962;9.018;2022-11-20T09:13:33;4.32;;;2.58;;
21239;SDS011;10778;48.962;9.018;2022-11-20T09:16:01;3.65;;;2.58;;
21239;SDS011;10778;48.962;9.018;2022-11-20T09:18:30;3.35;;;2.22;;
21239;SDS011;10778;48.962;9.018;2022-11-20T09:21:02;3.35;;;3.05;;
21239;SDS011;10778;48.962;9.018;2022-11-20T09:23:31;2.53;;;2.20;;
21239;SDS011;10778;48.962;9.018;2022-11-20T09:26:01;3.42;;;2.70;;
21239;SDS011;10778;48.962;9.018;2022-11-20T09:28:30;4.68;;;2.75;;
21239;SDS011;10778;48.962;9.018;2022-11-20T09:30:57;2.70;;;2.42;;
21239;SDS011;10778;48.962;9.018;2022-11-20T09:33:24;4.47;;;3.10;;
21239;SDS011;10778;48.962;9.018;2022-11-20T09:35:50;4.13;;;3.00;;
21239;SDS011;10778;48.962;9.018;2022-11-20T09:38:16;3.83;;;3.40;;
21239;SDS011;10778;48.962;9.018;2022-11-20T09:40:47;5.68;;;3.42;;
21239;SDS011;10778;48.962;9.018;2022-11-20T09:51:52;6.22;;;3.47;;
21239;SDS011;10778;48.962;9.018;2022-11-20T09:54:30;4.72;;;3.80;;
21239;SDS011;10778;48.962;9.018;2022-11-20T09:57:02;6.40;;;3.97;;
21239;SDS011;10778;48.962;9.018;2022-11-20T10:02:48;5.72;;;3.78;;
21239;SDS011;10778;48.962;9.018;2022-11-20T10:05:18;4.93;;;4.00;;
21239;SDS011;10778;48.962;9.018;2022-11-20T10:07:50;5.70;;;4.40;;
21239;SDS011;10778;48.962;9.018;2022-11-20T10:10:25;6.32;;;3.60;;
21239;SDS011;10778;48.962;9.018;2022-11-20T10:30:00;3.78;;;2.60;;
21239;SDS011;10778;48.962;9.018;2022-11-20T10:32:34;3.55;;;2.63;;
21239;SDS011;10778;48.962;9.018;2022-11-20T10:37:46;3.65;;;2.70;;
21239;SDS011;10778;48.962;9.018;2022-11-20T10:43:08;5.43;;;3.50;;
21239;SDS011;10778;48.962;9.018;2022-11-20T10:48:29;7.00;;;3.15;;
21239;SDS011;10778;48.962;9.018;2022-11-20T10:56:53;5.05;;;3.35;;
21239;SDS011;10778;48.962;9.018;2022-11-20T10:59:38;5.10;;;3.72;;
21239;SDS011;10778;48.962;9.018;2022-11-20T11:02:15;5.95;;;4.18;;
21239;SDS011;10778;48.962;9.018;2022-11-20T11:04:43;6.30;;;3.85;;
21239;SDS011;10778;48.962;9.018;2022-11-20T11:07:15;5.72;;;4.03;;
21239;SDS011;10778;48.962;9.018;2022-11-20T11:09:53;9.20;;;4.70;;
21239;SDS011;10778;48.962;9.018;2022-11-20T11:12:22;8.55;;;5.57;;
21239;SDS011;10778;48.962;9.018;2022-11-20T11:14:54;11.02;;;6.63;;
21239;SDS011;10778;48.962;9.018;2022-11-20T11:17:22;9.98;;;5.78;;
21239;SDS011;10778;48.962;9.018;2022-11-20T11:20:00;7.82;;;5.03;;
21239;SDS011;10778;48.962;9.018;2022-11-20T11:22:43;7.05;;;4.68;;
21239;SDS011;10778;48.962;9.018;2022-11-20T11:25:18;9.07;;;5.00;;
21239;SDS011;10778;48.962;9.018;2022-11-20T11:27:47;7.75;;;3.67;;
21239;SDS011;10778;48.962;9.018;2022-11-20T11:30:15;4.93;;;3.50;;
21239;SDS011;10778;48.962;9.018;2022-11-20T11:32:42;5.97;;;3.40;;
21239;SDS011;10778;48.962;9.018;2022-11-20T11:35:19;7.43;;;2.90;;
21239;SDS011;10778;48.962;9.018;2022-11-20T11:37:45;9.43;;;3.90;;
21239;SDS011;10778;48.962;9.018;2022-11-20T11:40:13;8.18;;;3.50;;
21239;SDS011;10778;48.962;9.018;2022-11-20T11:42:44;7.78;;;3.45;;
21239;SDS011;10778;48.962;9.018;2022-11-20T11:45:18;5.32;;;2.10;;
21239;SDS011;10778;48.962;9.018;2022-11-20T11:47:45;7.05;;;2.42;;
21239;SDS011;10778;48.962;9.018;2022-11-20T12:04:00;7.35;;;3.63;;
21239;SDS011;10778;48.962;9.018;2022-11-20T12:06:31;6.75;;;3.08;;
21239;SDS011;10778;48.962;9.018;2022-11-20T12:09:04;8.43;;;5.60;;
21239;SDS011;10778;48.962;9.018;2022-11-20T12:11:53;5.70;;;3.05;;
21239;SDS011;10778;48.962;9.018;2022-11-20T12:16:52;4.43;;;2.65;;
21239;SDS011;10778;48.962;9.018;2022-11-20T12:19:21;4.63;;;2.28;;
21239;SDS011;10778;48.962;9.018;2022-11-20T12:27:14;7.47;;;3.10;;
21239;SDS011;10778;48.962;9.018;2022-11-20T12:30:11;7.30;;;3.25;;
21239;SDS011;10778;48.962;9.018;2022-11-20T12:32:44;7.05;;;2.40;;
21239;SDS011;10778;48.962;9.018;2022-11-20T12:35:33;5.43;;;2.10;;
21239;SDS011;10778;48.962;9.018;2022-11-20T12:40:52;3.17;;;1.85;;
21239;SDS011;10778;48.962;9.018;2022-11-20T12:43:31;5.30;;;2.08;;
21239;SDS011;10778;48.962;9.018;2022-11-20T12:46:41;4.15;;;1.80;;
21239;SDS011;10778;48.962;9.018;2022-11-20T12:55:10;5.22;;;1.63;;
21239;SDS011;10778;48.962;9.018;2022-11-20T12:57:49;4.18;;;1.67;;
21239;SDS011;10778;48.962;9.018;2022-11-20T13:00:20;5.40;;;2.22;;
21239;SDS011;10778;48.962;9.018;2022-11-20T13:08:33;5.97;;;2.10;;
21239;SDS011;10778;48.962;9.018;2022-11-20T13:19:21;5.22;;;1.77;;
21239;SDS011;10778;48.962;9.018;2022-11-20T13:21:49;5.55;;;1.80;;
21239;SDS011;10778;48.962;9.018;2022-11-20T13:26:46;5.75;;;2.28;;
21239;SDS011;10778;48.962;9.018;2022-11-20T13:29:33;4.55;;;1.95;;
21239;SDS011;10778;48.962;9.018;2022-11-20T13:32:06;40.92;;;21.17;;
21239;SDS011;10778;48.962;9.018;2022-11-20T13:34:39;6.18;;;2.50;;
21239;SDS011;10778;48.962;9.018;2022-11-20T13:42:38;7.70;;;2.17;;
21239;SDS011;10778;48.962;9.018;2022-11-20T13:45:10;5.57;;;2.42;;
21239;SDS011;10778;48.962;9.018;2022-11-20T13:47:47;5.05;;;2.58;;
21239;SDS011;10778;48.962;9.018;2022-11-20T13:50:14;5.55;;;2.22;;
21239;SDS011;10778;48.962;9.018;2022-11-20T13:52:45;6.07;;;2.25;;
21239;SDS011;10778;48.962;9.018;2022-11-20T14:01:10;3.72;;;2.00;;
21239;SDS011;10778;48.962;9.018;2022-11-20T14:03:42;5.28;;;2.60;;
21239;SDS011;10778;48.962;9.018;2022-11-20T14:06:12;6.35;;;3.15;;
21239;SDS011;10778;48.962;9.018;2022-11-20T14:08:46;3.97;;;2.20;;
21239;SDS011;10778;48.962;9.018;2022-11-20T14:11:20;2.97;;;1.90;;
21239;SDS011;10778;48.962;9.018;2022-11-20T14:16:35;9.48;;;5.05;;
21239;SDS011;10778;48.962;9.018;2022-11-20T14:21:49;5.30;;;2.33;;
21239;SDS011;10778;48.962;9.018;2022-11-20T14:24:37;3.35;;;1.70;;
21239;SDS011;10778;48.962;9.018;2022-11-20T14:27:03;4.72;;;2.50;;
21239;SDS011;10778;48.962;9.018;2022-11-20T14:29:33;5.50;;;1.98;;
21239;SDS011;10778;48.962;9.018;2022-11-20T14:32:01;6.78;;;2.95;;
21239;SDS011;10778;48.962;9.018;2022-11-20T14:34:29;4.10;;;2.05;;
21239;SDS011;10778;48.962;9.018;2022-11-20T14:37:01;4.68;;;1.60;;
21239;SDS011;10778;48.962;9.018;2022-11-20T14:39:31;3.38;;;1.20;;
21239;SDS011;10778;48.962;9.018;2022-11-20T14:41:59;3.08;;;1.92;;
21239;SDS011;10778;48.962;9.018;2022-11-20T14:44:27;4.22;;;1.55;;
21239;SDS011;10778;48.962;9.018;2022-11-20T14:46:55;2.33;;;1.27;;
21239;SDS011;10778;48.962;9.018;2022-11-20T14:49:22;4.50;;;1.77;;
21239;SDS011;10778;48.962;9.018;2022-11-20T14:51:58;6.03;;;1.60;;
21239;SDS011;10778;48.962;9.018;2022-11-20T14:54:25;4.68;;;2.70;;
21239;SDS011;10778;48.962;9.018;2022-11-20T14:59:25;6.35;;;2.92;;
21239;SDS011;10778;48.962;9.018;2022-11-20T15:01:54;4.38;;;2.55;;
21239;SDS011;10778;48.962;9.018;2022-11-20T15:04:31;3.33;;;1.77;;
21239;SDS011;10778;48.962;9.018;2022-11-20T15:06:58;2.83;;;1.30;;
21239;SDS011;10778;48.962;9.018;2022-11-20T15:09:25;3.42;;;1.80;;
21239;SDS011;10778;48.962;9.018;2022-11-20T15:11:59;3.80;;;2.00;;
21239;SDS011;10778;48.962;9.018;2022-11-20T15:14:27;7.50;;;1.77;;
21239;SDS011;10778;48.962;9.018;2022-11-20T15:16:55;3.25;;;1.85;;
21239;SDS011;10778;48.962;9.018;2022-11-20T15:19:25;4.95;;;1.70;;
21239;SDS011;10778;48.962;9.018;2022-11-20T15:21:52;3.55;;;1.63;;
21239;SDS011;10778;48.962;9.018;2022-11-20T15:24:19;3.83;;;1.60;;
21239;SDS011;10778;48.962;9.018;2022-11-20T15:26:45;9.60;;;4.30;;
21239;SDS011;10778;48.962;9.018;2022-11-20T15:29:12;19.60;;;7.43;;
21239;SDS011;10778;48.962;9.018;2022-11-20T15:31:40;16.13;;;8.48;;
21239;SDS011;10778;48.962;9.018;2022-11-20T15:34:12;9.30;;;4.85;;
21239;SDS011;10778;48.962;9.018;2022-11-20T15:36:39;18.15;;;10.65;;
21239;SDS011;10778;48.962;9.018;2022-11-20T15:39:06;12.93;;;7.50;;
21239;SDS011;10778;48.962;9.018;2022-11-20T15:41:36;6.55;;;3.95;;
21239;SDS011;10778;48.962;9.018;2022-11-20T15:44:03;7.00;;;2.70;;
21239;SDS011;10778;48.962;9.018;2022-11-20T15:46:34;3.97;;;1.73;;
21239;SDS011;10778;48.962;9.018;2022-11-20T15:49:04;5.50;;;3.17;;
21239;SDS011;10778;48.962;9.018;2022-11-20T15:51:31;5.05;;;2.10;;
21239;SDS011;10778;48.962;9.018;2022-11-20T15:54:21;5.88;;;2.28;;
21239;SDS011;10778;48.962;9.018;2022-11-20T15:56:51;10.82;;;6.88;;
21239;SDS011;10778;48.962;9.018;2022-11-20T15:59:20;5.07;;;3.55;;
21239;SDS011;10778;48.962;9.018;2022-11-20T16:01:46;5.38;;;3.65;;
21239;SDS011;10778;48.962;9.018;2022-11-20T16:04:13;7.30;;;2.70;;
21239;SDS011;10778;48.962;9.018;2022-11-20T16:06:41;9.82;;;4.43;;
21239;SDS011;10778;48.962;9.018;2022-11-20T16:09:07;5.70;;;2.85;;
21239;SDS011;10778;48.962;9.018;2022-11-20T16:11:34;4.22;;;2.20;;
21239;SDS011;10778;48.962;9.018;2022-11-20T16:14:03;4.13;;;2.55;;
21239;SDS011;10778;48.962;9.018;2022-11-20T16:16:49;5.20;;;3.75;;
21239;SDS011;10778;48.962;9.018;2022-11-20T16:19:15;8.15;;;4.25;;
21239;SDS011;10778;48.962;9.018;2022-11-20T16:21:41;5.93;;;3.47;;
21239;SDS011;10778;48.962;9.018;2022-11-20T16:24:08;5.47;;;3.55;;
21239;SDS011;10778;48.962;9.018;2022-11-20T16:26:37;8.90;;;4.63;;
21239;SDS011;10778;48.962;9.018;2022-11-20T16:29:03;12.45;;;6.90;;
21239;SDS011;10778;48.962;9.018;2022-11-20T16:31:30;13.88;;;8.05;;
21239;SDS011;10778;48.962;9.018;2022-11-20T16:33:57;11.63;;;6.18;;
21239;SDS011;10778;48.962;9.018;2022-11-20T16:36:26;7.65;;;4.70;;
21239;SDS011;10778;48.962;9.018;2022-11-20T16:38:54;7.72;;;4.03;;
21239;SDS011;10778;48.962;9.018;2022-11-20T16:41:22;7.25;;;3.80;;
21239;SDS011;10778;48.962;9.018;2022-11-20T16:43:52;7.20;;;3.22;;
21239;SDS011;10778;48.962;9.018;2022-11-20T16:46:21;5.03;;;3.63;;